createdAt,value
2019-02-22T00:02:48.100Z,101433.44
2019-02-22T00:05:38.614Z,101443.86
2019-02-22T00:08:28.779Z,101441.27
2019-02-22T00:11:18.833Z,101448.03
2019-02-22T00:14:08.266Z,101454.91
2019-02-22T00:16:58.248Z,101457.72
2019-02-22T00:19:48.720Z,101458.13
2019-02-22T00:22:38.573Z,101456.77
2019-02-22T00:25:29.067Z,101460.42
2019-02-22T00:28:18.975Z,101461.67
2019-02-22T00:31:09.208Z,101464.67
2019-02-22T00:33:58.638Z,101470.52
2019-02-22T00:36:48.489Z,101469.89
2019-02-22T00:39:38.215Z,101467.59
2019-02-22T00:42:27.943Z,101473.10
2019-02-22T00:45:17.730Z,101469.88
2019-02-22T00:48:07.774Z,101469.55
2019-02-22T00:50:57.646Z,101479.53
2019-02-22T00:53:47.599Z,101475.92
2019-02-22T00:56:37.394Z,101468.10
2019-02-22T00:59:27.242Z,101470.30
2019-02-22T01:02:17.195Z,101466.13
2019-02-22T01:05:07.221Z,101467.29
2019-02-22T01:07:57.099Z,101459.08
2019-02-22T01:10:47.119Z,101457.51
2019-02-22T01:13:37.072Z,101459.30
2019-02-22T01:16:27.239Z,101466.36
2019-02-22T01:19:16.608Z,101469.91
2019-02-22T01:22:06.375Z,101479.78
2019-02-22T01:24:56.180Z,101470.97
2019-02-22T01:27:47.205Z,101487.20
2019-02-22T01:30:37.081Z,101480.34
2019-02-22T01:33:26.984Z,101480.95
2019-02-22T01:36:16.585Z,101488.75
2019-02-22T01:39:07.338Z,101488.75
2019-02-22T01:41:57.179Z,101490.10
2019-02-22T01:44:46.938Z,101498.84
2019-02-22T01:47:36.940Z,101535.37
2019-02-22T01:50:27.169Z,101496.47
2019-02-22T01:53:16.761Z,101502.61
2019-02-22T01:56:06.801Z,101506.34
2019-02-22T01:58:56.633Z,101503.34
2019-02-22T02:01:46.815Z,101505.65
2019-02-22T02:04:37.664Z,101514.28
2019-02-22T02:07:27.514Z,101513.48
2019-02-22T02:10:17.813Z,101524.25
2019-02-22T02:13:07.555Z,101529.39
2019-02-22T02:15:57.680Z,101530.66
2019-02-22T02:18:47.074Z,101535.69
2019-02-22T02:21:36.696Z,101535.92
2019-02-22T02:24:26.655Z,101540.26
2019-02-22T02:27:16.532Z,101546.81
2019-02-22T02:30:07.412Z,101544.65
2019-02-22T02:32:58.239Z,101549.95
2019-02-22T02:35:48.205Z,101557.02
2019-02-22T02:38:37.616Z,101554.55
2019-02-22T02:41:27.371Z,101554.03
2019-02-22T02:44:17.223Z,101555.05
2019-02-22T02:47:07.439Z,101550.91
2019-02-22T02:49:57.431Z,101555.39
2019-02-22T02:52:47.047Z,101550.81
2019-02-22T02:55:37.254Z,101560.95
2019-02-22T02:58:27.040Z,101572.86
2019-02-22T03:01:17.121Z,101574.59
2019-02-22T03:04:07.061Z,101573.13
2019-02-22T03:07:01.985Z,101583.27
2019-02-22T03:09:51.482Z,101580.84
2019-02-22T03:12:41.766Z,101585.49
2019-02-22T03:15:31.822Z,101588.89
2019-02-22T03:18:21.731Z,101596.61
2019-02-22T03:21:11.555Z,101600.48
2019-02-22T03:24:01.232Z,101597.34
2019-02-22T03:26:51.008Z,101601.96
2019-02-22T03:29:40.764Z,101603.63
2019-02-22T03:32:30.810Z,101618.52
2019-02-22T03:35:20.622Z,101618.73
2019-02-22T03:38:10.298Z,101611.43
2019-02-22T03:40:59.933Z,101621.43
2019-02-22T03:43:50.612Z,101624.02
2019-02-22T03:46:40.312Z,101623.92
2019-02-22T03:49:31.091Z,101629.73
2019-02-22T03:52:25.413Z,101624.23
2019-02-22T03:55:15.153Z,101632.47
2019-02-22T03:58:05.398Z,101638.27
2019-02-22T04:00:55.245Z,101641.67
2019-02-22T04:03:45.368Z,101646.39
2019-02-22T04:06:35.132Z,101649.70
2019-02-22T04:09:25.239Z,101655.28
2019-02-22T04:12:15.128Z,101659.94
2019-02-22T04:15:05.789Z,101664.98
2019-02-22T04:17:55.813Z,101665.95
2019-02-22T04:20:45.670Z,101668.66
2019-02-22T04:23:35.343Z,101666.97
2019-02-22T04:26:25.190Z,101680.04
2019-02-22T04:29:15.238Z,101689.93
2019-02-22T04:32:05.060Z,101686.80
2019-02-22T04:34:54.873Z,101684.20
2019-02-22T04:37:44.774Z,101697.74
2019-02-22T04:40:34.484Z,101700.42
2019-02-22T04:43:23.918Z,101703.22
2019-02-22T04:46:14.036Z,101713.03
2019-02-22T04:49:03.906Z,101719.19
2019-02-22T04:51:53.880Z,101720.37
2019-02-22T04:54:44.181Z,101717.89
2019-02-22T04:57:34.327Z,101722.72
2019-02-22T05:00:25.170Z,101723.43
2019-02-22T05:03:15.366Z,101725.88
2019-02-22T05:06:05.346Z,101731.09
2019-02-22T05:08:54.824Z,101732.51
2019-02-22T05:11:44.564Z,101743.19
2019-02-22T05:14:34.307Z,101744.54
2019-02-22T05:17:23.801Z,101743.31
2019-02-22T05:20:14.080Z,101749.88
2019-02-22T05:23:07.441Z,101758.55
2019-02-22T05:25:56.430Z,101755.91
2019-02-22T05:28:46.598Z,101758.11
2019-02-22T05:31:36.411Z,101761.86
2019-02-22T05:34:26.447Z,101764.80
2019-02-22T05:37:16.226Z,101769.97
2019-02-22T05:40:06.274Z,101772.66
2019-02-22T05:42:56.092Z,101779.09
2019-02-22T05:45:45.917Z,101785.13
2019-02-22T05:48:38.778Z,101783.58
2019-02-22T05:51:27.967Z,101787.84
2019-02-22T05:54:17.799Z,101786.86
2019-02-22T05:57:07.230Z,101796.31
2019-02-22T05:59:56.716Z,101808.95
2019-02-22T06:02:47.151Z,101822.05
2019-02-22T06:05:37.020Z,101827.04
2019-02-22T06:08:26.993Z,101833.70
2019-02-22T06:11:16.696Z,101834.06
2019-02-22T06:14:06.578Z,101836.98
2019-02-22T06:16:56.334Z,101846.77
2019-02-22T06:19:46.115Z,101854.17
2019-02-22T06:22:36.129Z,101853.97
2019-02-22T06:25:25.982Z,101860.28
2019-02-22T06:28:16.127Z,101871.27
2019-02-22T06:31:06.214Z,101874.50
2019-02-22T06:33:55.919Z,101879.13
2019-02-22T06:36:46.060Z,101886.59
2019-02-22T06:39:35.987Z,101894.44
2019-02-22T06:42:25.826Z,101896.97
2019-02-22T06:45:15.921Z,101908.88
2019-02-22T06:48:05.647Z,101914.06
2019-02-22T06:50:55.704Z,101918.20
2019-02-22T06:53:45.556Z,101924.95
2019-02-22T06:56:35.317Z,101924.92
2019-02-22T06:59:25.350Z,101931.61
2019-02-22T07:02:15.520Z,101931.81
2019-02-22T07:05:05.819Z,101936.30
2019-02-22T07:07:56.930Z,101933.77
2019-02-22T07:11:04.689Z,101949.31
2019-02-22T07:13:54.461Z,101955.10
2019-02-22T07:16:44.898Z,101949.25
2019-02-22T07:19:34.466Z,101958.38
2019-02-22T07:22:24.602Z,101968.67
2019-02-22T07:25:14.411Z,101973.85
2019-02-22T07:28:04.206Z,101978.55
2019-02-22T07:30:53.968Z,101983.73
2019-02-22T07:33:44.095Z,101994.62
2019-02-22T07:36:33.689Z,101996.98
2019-02-22T07:39:27.864Z,102003.52
2019-02-22T07:42:15.041Z,102010.84
2019-02-22T07:45:05.698Z,102018.05
2019-02-22T07:47:55.820Z,102018.58
2019-02-22T07:50:56.541Z,102019.95
2019-02-22T07:53:37.473Z,102027.38
2019-02-22T07:56:27.124Z,102036.28
2019-02-22T07:59:16.851Z,102050.17
2019-02-22T08:02:06.963Z,102041.81
2019-02-22T08:04:55.967Z,102048.85
2019-02-22T08:07:46.041Z,102052.58
2019-02-22T08:10:35.816Z,102059.59
2019-02-22T08:13:26.136Z,102069.14
2019-02-22T08:16:16.584Z,102069.34
2019-02-22T08:19:06.613Z,102080.09
2019-02-22T08:21:56.758Z,102087.25
2019-02-22T08:24:46.152Z,102101.00
2019-02-22T08:27:39.874Z,102104.66
2019-02-22T08:30:29.355Z,102112.08
2019-02-22T08:33:19.092Z,102123.34
2019-02-22T08:36:08.967Z,102123.09
2019-02-22T08:38:59.107Z,102128.19
2019-02-22T08:41:49.233Z,102135.25
2019-02-22T08:44:39.618Z,102151.47
2019-02-22T08:47:29.913Z,102151.05
2019-02-22T08:50:19.782Z,102169.55
2019-02-22T08:53:09.837Z,102172.91
2019-02-22T08:55:59.632Z,102183.44
2019-02-22T08:58:49.426Z,102177.08
2019-02-22T09:01:40.322Z,102188.07
2019-02-22T09:04:30.018Z,102190.30
2019-02-22T09:07:20.096Z,102205.56
2019-02-22T09:10:10.842Z,102211.70
2019-02-22T09:13:01.181Z,102222.36
2019-02-22T09:15:50.978Z,102230.33
2019-02-22T09:18:40.487Z,102237.29
2019-02-22T09:21:30.003Z,102238.16
2019-02-22T09:24:19.972Z,102246.44
2019-02-22T09:27:09.812Z,102243.88
2019-02-22T09:29:59.706Z,102260.06
2019-02-22T09:32:49.467Z,102256.70
2019-02-22T09:35:39.870Z,102268.86
2019-02-22T09:38:29.919Z,102271.20
2019-02-22T09:41:19.720Z,102273.41
2019-02-22T09:44:09.174Z,102284.69
2019-02-22T09:46:58.874Z,102293.45
2019-02-22T09:49:49.686Z,102292.28
2019-02-22T09:52:39.827Z,102289.06
2019-02-22T09:55:29.937Z,102299.53
2019-02-22T09:58:19.884Z,102304.57
2019-02-22T10:01:10.209Z,102313.66
2019-02-22T10:04:00.184Z,102315.34
2019-02-22T10:06:50.055Z,102325.62
2019-02-22T10:09:39.917Z,102326.62
2019-02-22T10:12:29.930Z,102333.21
2019-02-22T10:15:20.019Z,102340.42
2019-02-22T10:18:09.783Z,102340.25
2019-02-22T10:20:59.593Z,102349.86
2019-02-22T10:23:49.853Z,102352.21
2019-02-22T10:26:39.732Z,102361.17
2019-02-22T10:29:29.386Z,102367.94
2019-02-22T10:32:20.152Z,102368.30
2019-02-22T10:35:09.770Z,102371.17
2019-02-22T10:37:59.317Z,102378.74
2019-02-22T10:40:49.255Z,102382.46
2019-02-22T10:43:39.329Z,102396.78
2019-02-22T10:46:29.164Z,102397.61
2019-02-22T10:49:19.368Z,102405.72
2019-02-22T10:52:08.974Z,102421.14
2019-02-22T10:54:58.528Z,102426.84
2019-02-22T10:57:48.338Z,102431.73
2019-02-22T11:00:38.474Z,102433.89
2019-02-22T11:03:27.948Z,102435.55
2019-02-22T11:06:17.904Z,102441.30
2019-02-22T11:09:08.913Z,102435.19
2019-02-22T11:11:59.240Z,102440.92
2019-02-22T11:14:49.251Z,102453.86
2019-02-22T11:17:39.113Z,102448.64
2019-02-22T11:20:28.495Z,102456.04
2019-02-22T11:23:18.040Z,102461.84
2019-02-22T11:26:08.188Z,102467.69
2019-02-22T11:28:57.746Z,102468.18
2019-02-22T11:31:47.639Z,102480.48
2019-02-22T11:34:36.954Z,102488.88
2019-02-22T11:37:26.330Z,102491.27
2019-02-22T11:40:16.128Z,102501.66
2019-02-22T11:43:06.108Z,102489.92
2019-02-22T11:45:55.619Z,102498.86
2019-02-22T11:48:45.392Z,102500.21
2019-02-22T11:51:36.235Z,102498.93
2019-02-22T11:54:26.136Z,102507.20
2019-02-22T11:57:19.503Z,102508.73
2019-02-22T12:00:12.965Z,102519.31
2019-02-22T12:03:15.958Z,102520.47
2019-02-22T12:05:54.412Z,102538.28
2019-02-22T12:08:43.973Z,102537.03
2019-02-22T12:11:33.680Z,102547.42
2019-02-22T12:14:23.484Z,102550.12
2019-02-22T12:17:13.052Z,102544.39
2019-02-22T12:20:03.421Z,102548.90
2019-02-22T12:22:52.842Z,102559.66
2019-02-22T12:25:44.584Z,102562.80
2019-02-22T12:28:34.610Z,102564.14
2019-02-22T12:31:24.629Z,102565.08
2019-02-22T12:34:14.302Z,102568.41
2019-02-22T12:37:04.664Z,102577.41
2019-02-22T12:39:54.722Z,102587.31
2019-02-22T12:42:44.459Z,102584.48
2019-02-22T12:45:34.844Z,102586.63
2019-02-22T12:48:24.853Z,102592.17
2019-02-22T12:51:15.078Z,102599.91
2019-02-22T12:54:04.923Z,102598.20
2019-02-22T12:56:57.272Z,102608.61
2019-02-22T12:59:46.176Z,102605.84
2019-02-22T13:02:35.974Z,102611.26
2019-02-22T13:05:26.462Z,102619.20
2019-02-22T13:08:16.344Z,102618.93
2019-02-22T13:11:06.100Z,102628.27
2019-02-22T13:13:55.608Z,102643.80
2019-02-22T13:16:46.898Z,102647.02
2019-02-22T13:19:36.909Z,102657.36
2019-02-22T13:22:27.103Z,102666.44
2019-02-22T13:25:17.203Z,102668.72
2019-02-22T13:28:07.131Z,102666.39
2019-02-22T13:30:56.847Z,102669.37
2019-02-22T13:33:48.211Z,102671.64
2019-02-22T13:36:38.041Z,102677.23
2019-02-22T13:39:28.174Z,102685.93
2019-02-22T13:42:18.176Z,102690.38
2019-02-22T13:45:09.319Z,102697.37
2019-02-22T13:47:59.417Z,102700.43
2019-02-22T13:50:49.476Z,102699.91
2019-02-22T13:53:39.168Z,102706.78
2019-02-22T13:56:30.064Z,102714.41
2019-02-22T13:59:19.951Z,102727.30
2019-02-22T14:02:09.876Z,102722.89
2019-02-22T14:04:59.603Z,102730.80
2019-02-22T14:07:56.488Z,102734.22
2019-02-22T14:10:46.376Z,102733.36
2019-02-22T14:13:37.361Z,102742.83
2019-02-22T14:16:27.637Z,102751.53
2019-02-22T14:19:17.899Z,102744.92
2019-02-22T14:22:08.107Z,102752.55
2019-02-22T14:24:58.068Z,102754.97
2019-02-22T14:27:48.205Z,102756.86
2019-02-22T14:30:37.905Z,102761.03
2019-02-22T14:33:27.355Z,102763.78
2019-02-22T14:36:17.431Z,102770.27
2019-02-22T14:39:09.351Z,102770.27
2019-02-22T14:41:59.892Z,102773.91
2019-02-22T14:44:49.613Z,102779.69
2019-02-22T14:47:39.574Z,102789.93
2019-02-22T14:50:29.688Z,102786.31
2019-02-22T14:53:20.051Z,102790.00
2019-02-22T14:56:09.899Z,102794.36
2019-02-22T14:59:00.759Z,102794.29
2019-02-22T15:01:51.374Z,102795.41
2019-02-22T15:04:42.075Z,102801.27
2019-02-22T15:07:32.066Z,102796.91
2019-02-22T15:10:21.956Z,102785.25
2019-02-22T15:13:12.715Z,102789.39
2019-02-22T15:16:28.062Z,102794.05
2019-02-22T15:19:18.436Z,102795.91
2019-02-22T15:22:09.032Z,102804.01
2019-02-22T15:24:58.329Z,102807.11
2019-02-22T15:27:48.365Z,102808.81
2019-02-22T15:30:38.206Z,102816.34
2019-02-22T15:33:27.284Z,102819.41
2019-02-22T15:36:17.288Z,102824.81
2019-02-22T15:39:07.682Z,102834.80
2019-02-22T15:41:58.743Z,102838.22
2019-02-22T15:44:48.332Z,102849.48
2019-02-22T15:47:38.240Z,102844.63
2019-02-22T15:50:37.558Z,102848.66
2019-02-22T15:53:27.471Z,102850.70
2019-02-22T15:56:18.395Z,102846.91
2019-02-22T15:59:08.720Z,102854.20
2019-02-22T16:01:58.922Z,102853.87
2019-02-22T16:04:57.162Z,102848.51
2019-02-22T16:07:47.508Z,102855.95
2019-02-22T16:10:37.544Z,102858.13
2019-02-22T16:13:27.040Z,102863.23
2019-02-22T16:16:23.220Z,102869.94
2019-02-22T16:19:08.673Z,102875.16
2019-02-22T16:21:58.603Z,102875.16
2019-02-22T16:24:48.542Z,102890.84
2019-02-22T16:27:38.619Z,102888.57
2019-02-22T16:30:31.770Z,102897.02
2019-02-22T16:33:20.889Z,102898.88
2019-02-22T16:36:11.147Z,102895.98
2019-02-22T16:39:01.112Z,102894.89
2019-02-22T16:41:52.254Z,102897.20
2019-02-22T16:44:41.981Z,102892.61
2019-02-22T16:47:39.592Z,102896.41
2019-02-22T16:50:24.081Z,102899.04
2019-02-22T16:53:13.616Z,102903.12
2019-02-22T16:56:03.596Z,102906.31
2019-02-22T16:58:53.252Z,102910.02
2019-02-22T17:01:42.793Z,102913.64
2019-02-22T17:04:32.463Z,102911.84
2019-02-22T17:07:22.133Z,102911.42
2019-02-22T17:10:12.807Z,102915.45
2019-02-22T17:13:02.837Z,102919.63
2019-02-22T17:15:52.567Z,102919.78
2019-02-22T17:18:42.482Z,102916.27
2019-02-22T17:21:32.521Z,102917.27
2019-02-22T17:24:22.508Z,102924.11
2019-02-22T17:27:12.236Z,102943.23
2019-02-22T17:30:01.915Z,102938.98
2019-02-22T17:32:51.782Z,102937.55
2019-02-22T17:35:41.804Z,102944.86
2019-02-22T17:38:31.312Z,102947.30
2019-02-22T17:41:21.020Z,102964.70
2019-02-22T17:44:10.885Z,102961.57
2019-02-22T17:47:03.762Z,102974.33
2019-02-22T17:49:53.242Z,102982.98
2019-02-22T17:52:42.911Z,103000.02
2019-02-22T17:55:32.896Z,103011.23
2019-02-22T17:58:24.682Z,103006.58
2019-02-22T18:01:13.687Z,103012.42
2019-02-22T18:04:03.898Z,103003.78
2019-02-22T18:06:53.797Z,102998.20
2019-02-22T18:09:43.764Z,102990.14
2019-02-22T18:12:33.906Z,102990.63
2019-02-22T18:15:23.829Z,102995.36
2019-02-22T18:18:12.959Z,102995.84
2019-02-22T18:21:02.783Z,102993.28
2019-02-22T18:23:52.624Z,102998.97
2019-02-22T18:26:42.086Z,102999.45
2019-02-22T18:29:35.354Z,103008.52
2019-02-22T18:32:23.119Z,103013.96
2019-02-22T18:35:13.217Z,103024.17
2019-02-22T18:38:02.341Z,103030.81
2019-02-22T18:40:52.110Z,103046.07
2019-02-22T18:43:41.838Z,103035.98
2019-02-22T18:46:31.983Z,103038.27
2019-02-22T18:49:22.004Z,103046.27
2019-02-22T18:52:12.156Z,103053.29
2019-02-22T18:55:02.181Z,103046.91
2019-02-22T18:57:52.303Z,103050.77
2019-02-22T19:00:42.540Z,103043.92
2019-02-22T19:03:32.033Z,103040.25
2019-02-22T19:06:21.825Z,103049.11
2019-02-22T19:09:12.418Z,103055.52
2019-02-22T19:12:02.561Z,103057.92
2019-02-22T19:14:52.718Z,103051.25
2019-02-22T19:17:42.891Z,103045.77
2019-02-22T19:20:32.689Z,103043.52
2019-02-22T19:23:23.077Z,103048.72
2019-02-22T19:26:13.285Z,103051.23
2019-02-22T19:29:04.029Z,103044.30
2019-02-22T19:31:53.827Z,103032.03
2019-02-22T19:34:43.654Z,103047.51
2019-02-22T19:37:32.902Z,103048.10
2019-02-22T19:40:23.433Z,103057.44
2019-02-22T19:43:13.320Z,103054.98
2019-02-22T19:46:03.022Z,103056.64
2019-02-22T19:48:52.787Z,103053.44
2019-02-22T19:51:42.745Z,103057.20
2019-02-22T19:54:31.940Z,103063.48
2019-02-22T19:57:21.904Z,103068.19
2019-02-22T20:00:13.350Z,103069.25
2019-02-22T20:03:03.105Z,103062.20
2019-02-22T20:05:53.092Z,103061.46
2019-02-22T20:08:42.965Z,103055.11
2019-02-22T20:11:32.953Z,103044.38
2019-02-22T20:14:22.617Z,103044.97
2019-02-22T20:17:12.095Z,103046.78
2019-02-22T20:20:01.387Z,103058.77
2019-02-22T20:22:51.033Z,103060.50
2019-02-22T20:25:40.813Z,103069.09
2019-02-22T20:28:30.607Z,103071.87
2019-02-22T20:31:20.755Z,103084.34
2019-02-22T20:34:11.857Z,103090.14
2019-02-22T20:37:02.069Z,103091.32
2019-02-22T20:39:52.127Z,103097.59
2019-02-22T20:42:41.786Z,103094.30
2019-02-22T20:45:31.661Z,103105.05
2019-02-22T20:48:21.859Z,103113.63
2019-02-22T20:51:12.082Z,103114.41
2019-02-22T20:54:02.199Z,103118.17
2019-02-22T20:56:52.271Z,103118.09
2019-02-22T20:59:41.637Z,103129.45
2019-02-22T21:02:30.923Z,103132.11
2019-02-22T21:05:20.875Z,103124.03
2019-02-22T21:08:10.664Z,103118.31
2019-02-22T21:11:00.763Z,103109.22
2019-02-22T21:13:50.923Z,103108.47
2019-02-22T21:16:41.462Z,103111.69
2019-02-22T21:19:31.140Z,103119.04
2019-02-22T21:22:20.808Z,103115.52
2019-02-22T21:25:11.236Z,103117.82
2019-02-22T21:28:00.963Z,103114.87
2019-02-22T21:30:50.742Z,103127.92
2019-02-22T21:33:40.433Z,103124.39
2019-02-22T21:36:30.193Z,103128.97
2019-02-22T21:39:21.167Z,103124.70
2019-02-22T21:42:19.844Z,103133.16
2019-02-22T21:45:02.821Z,103127.00
2019-02-22T21:47:55.694Z,103123.95
2019-02-22T21:50:46.006Z,103121.75
2019-02-22T21:53:35.789Z,103124.53
2019-02-22T21:56:25.575Z,103127.47
2019-02-22T21:59:14.970Z,103138.20
2019-02-22T22:02:04.827Z,103134.43
2019-02-22T22:04:54.658Z,103136.89
2019-02-22T22:07:44.764Z,103141.11
2019-02-22T22:10:35.302Z,103147.77
2019-02-22T22:13:25.425Z,103138.45
2019-02-22T22:16:15.480Z,103145.69
2019-02-22T22:19:05.291Z,103157.68
2019-02-22T22:21:55.460Z,103170.02
2019-02-22T22:24:45.467Z,103163.01
2019-02-22T22:27:37.566Z,103180.50
2019-02-22T22:30:28.238Z,103178.23
2019-02-22T22:33:18.719Z,103176.80
2019-02-22T22:36:13.021Z,103188.31
2019-02-22T22:39:02.632Z,103189.25
2019-02-22T22:41:54.372Z,103191.05
2019-02-22T22:44:44.138Z,103185.47
2019-02-22T22:47:34.202Z,103189.36
2019-02-22T22:50:24.163Z,103195.55
2019-02-22T22:53:13.487Z,103198.96
2019-02-22T22:56:03.098Z,103199.32
2019-02-22T22:58:53.072Z,103201.91
2019-02-22T23:01:43.044Z,103197.62
2019-02-22T23:04:33.113Z,103205.69
2019-02-22T23:07:23.256Z,103200.29
2019-02-22T23:10:13.051Z,103204.11
2019-02-22T23:13:03.109Z,103206.56
2019-02-22T23:15:52.849Z,103215.59
2019-02-22T23:18:42.709Z,103212.67
2019-02-22T23:21:32.677Z,103214.83
2019-02-22T23:24:22.603Z,103219.87
2019-02-22T23:27:12.433Z,103213.14
2019-02-22T23:30:02.251Z,103219.80
2019-02-22T23:32:52.579Z,103219.87
2019-02-22T23:35:42.799Z,103226.16
2019-02-22T23:38:32.389Z,103217.02
2019-02-22T23:41:22.427Z,103221.02
2019-02-22T23:44:11.911Z,103210.84
2019-02-22T23:47:01.848Z,103206.09
2019-02-22T23:49:51.334Z,103206.09
2019-02-22T23:52:41.098Z,103204.87
2019-02-22T23:55:30.793Z,103192.31
2019-02-22T23:58:21.002Z,103199.15
